Terminal Aerodrome Forecast
Issued by NWS

Home | Current Version | Previous Version | Text Only | Print | Product List | Glossary On
Versions: 1 2 3 4 5 6 7 8 9 10 11 12 13 14 15 16 17 18 19
000
FTUS41 KPBZ 230900 AAA
TAFDUJ
TAF AMD
KDUJ 230904Z 2309/2406 29010G18KT P6SM OVC015
     FM231500 30010G18KT P6SM BKN025
     FM231800 31014G22KT P6SM SCT040
     FM240000 31007KT P6SM SKC=

USA.gov is the U.S. government's official web portal to all federal, state and local government web resources and services.